Time;durP1;ratioP1;P1;durP2;ratioP2;P2;SDS_P1;SDS_P2;PMS_P1;PMS_P2;Temp;Humidity;BMP_temperature;BMP_pressure;BME280_temperature;BME280_humidity;BME280_pressure;Samples;Min_cycle;Max_cycle;Signal;HPM_P1;HPM_P2
2023/08/08 00:01:36;;;;;;;7.50;3.50;;;;;;;;;;5019716;28;20452;-82
2023/08/08 00:04:02;;;;;;;7.68;3.80;;;;;;;;;;5027851;28;20415;-82
2023/08/08 00:06:28;;;;;;;8.40;3.75;;;;;;;;;;5038596;28;20415;-82
2023/08/08 00:08:54;;;;;;;8.07;3.73;;;;;;;;;;5038805;28;20513;-82
2023/08/08 00:11:20;;;;;;;8.52;3.90;;;14.40;99.90;;;;;;5039384;28;20416;-81
2023/08/08 00:13:46;;;;;;;5.63;3.63;;;14.30;99.90;;;;;;5009118;28;20422;-81
2023/08/08 00:16:11;;;;;;;6.28;3.40;;;14.30;99.90;;;;;;5041745;28;20499;-81
2023/08/08 00:18:37;;;;;;;7.80;3.65;;;14.40;99.90;;;;;;5008216;28;20491;-81
2023/08/08 00:21:03;;;;;;;7.85;3.70;;;;;;;;;;5041488;28;20415;-81
2023/08/08 00:23:29;;;;;;;6.90;3.70;;;14.40;99.90;;;;;;5058074;28;20743;-81
2023/08/08 00:25:55;;;;;;;6.53;3.63;;;14.30;99.90;;;;;;5041032;28;20498;-82
2023/08/08 00:28:21;;;;;;;6.40;3.60;;;;;;;;;;5017016;28;20405;-81
2023/08/08 00:30:47;;;;;;;9.43;3.65;;;;;;;;;;5040268;28;20416;-81
2023/08/08 00:33:13;;;;;;;6.18;3.83;;;;;;;;;;5052615;28;20941;-81
2023/08/08 00:35:39;;;;;;;8.20;3.78;;;14.10;99.90;;;;;;5040743;28;20496;-81
2023/08/08 00:38:05;;;;;;;7.47;4.05;;;;;;;;;;5044274;28;20499;-81
2023/08/08 00:40:31;;;;;;;7.00;3.95;;;14.10;99.90;;;;;;5041070;28;20895;-81
2023/08/08 00:42:56;;;;;;;7.30;4.05;;;14.20;99.90;;;;;;5039694;28;20449;-82
2023/08/08 00:45:23;;;;;;;7.85;4.18;;;;;;;;;;5024332;28;20506;-82
2023/08/08 00:47:49;;;;;;;9.90;4.15;;;;;;;;;;5055060;28;20468;-82
2023/08/08 00:50:17;;;;;;;7.65;4.03;;;13.90;99.90;;;;;;5039028;28;20433;-82
2023/08/08 00:52:44;;;;;;;6.90;4.30;;;13.90;99.90;;;;;;5021300;28;20398;-82
2023/08/08 00:55:10;;;;;;;9.48;4.60;;;;;;;;;;5051394;28;20434;-82
2023/08/08 00:57:38;;;;;;;6.32;4.15;;;14.10;99.90;;;;;;5057195;28;20414;-82
2023/08/08 01:00:06;;;;;;;8.55;4.50;;;14.00;99.90;;;;;;5024974;28;20406;-82
2023/08/08 01:02:32;;;;;;;7.53;4.07;;;14.00;99.90;;;;;;5040898;28;20487;-81
2023/08/08 01:04:58;;;;;;;8.20;4.30;;;;;;;;;;5007701;28;20478;-82
2023/08/08 01:07:30;;;;;;;9.63;4.80;;;;;;;;;;5041811;28;20418;-81
2023/08/08 01:10:04;;;;;;;8.35;4.53;;;14.00;99.90;;;;;;5050835;28;20427;-82
2023/08/08 01:12:30;;;;;;;9.40;4.87;;;13.90;99.90;;;;;;5040030;28;20434;-82
2023/08/08 01:14:57;;;;;;;6.80;4.40;;;;;;;;;;5056946;28;20396;-82
2023/08/08 01:17:26;;;;;;;9.30;4.77;;;13.70;99.90;;;;;;5056741;28;20789;-82
2023/08/08 01:19:52;;;;;;;8.88;4.50;;;;;;;;;;5056872;28;20415;-82
2023/08/08 01:22:35;;;;;;;10.10;4.80;;;13.80;99.90;;;;;;5026765;28;20785;-82
2023/08/08 01:25:02;;;;;;;8.90;5.03;;;13.70;99.90;;;;;;5049423;28;20416;-82
2023/08/08 01:27:28;;;;;;;8.20;4.60;;;;;;;;;;5014415;28;20454;-82
2023/08/08 01:29:54;;;;;;;10.07;4.72;;;;;;;;;;5056702;28;20814;-82
2023/08/08 01:32:20;;;;;;;8.80;4.70;;;;;;;;;;5038123;28;20481;-82
2023/08/08 01:34:47;;;;;;;7.40;4.70;;;;;;;;;;5056111;28;20396;-82
2023/08/08 01:37:34;;;;;;;12.83;4.80;;;13.60;99.90;;;;;;5020379;28;20471;-82
2023/08/08 01:40:01;;;;;;;9.52;4.50;;;;;;;;;;5027627;28;20428;-82
2023/08/08 01:42:28;;;;;;;8.80;4.70;;;13.70;99.90;;;;;;5034524;28;20432;-82
2023/08/08 01:44:55;;;;;;;8.05;4.35;;;13.70;99.90;;;;;;5005528;28;20429;-82
2023/08/08 01:47:21;;;;;;;6.80;4.40;;;;;;;;;;5046075;28;20415;-82
2023/08/08 01:49:47;;;;;;;7.30;4.00;;;;;;;;;;5055669;28;20428;-82
2023/08/08 01:52:13;;;;;;;7.20;4.20;;;13.60;99.90;;;;;;5037212;28;20853;-81
2023/08/08 01:54:42;;;;;;;10.15;4.22;;;;;;;;;;5036484;28;20483;-83
2023/08/08 01:57:08;;;;;;;8.40;4.30;;;;;;;;;;5029330;28;20413;-83
2023/08/08 01:59:34;;;;;;;7.68;4.65;;;;;;;;;;5040952;28;20508;-83
2023/08/08 02:02:00;;;;;;;8.90;4.80;;;;;;;;;;5045670;28;20417;-82
2023/08/08 02:04:26;;;;;;;9.40;4.30;;;;;;;;;;5011122;28;20442;-83
2023/08/08 02:06:52;;;;;;;8.23;4.45;;;;;;;;;;5031165;28;20873;-82
2023/08/08 02:09:18;;;;;;;9.73;4.97;;;;;;;;;;5019302;28;20451;-82
2023/08/08 02:11:44;;;;;;;11.77;4.70;;;;;;;;;;5040764;28;20978;-83
2023/08/08 02:14:10;;;;;;;9.30;4.45;;;;;;;;;;5050915;28;20401;-81
2023/08/08 02:16:36;;;;;;;8.77;4.57;;;13.70;99.90;;;;;;5022806;28;20796;-81
2023/08/08 02:19:02;;;;;;;9.85;4.78;;;;;;;;;;5039954;28;20429;-82
2023/08/08 02:21:28;;;;;;;8.82;4.50;;;;;;;;;;5033095;28;20487;-82
2023/08/08 02:23:54;;;;;;;10.43;4.47;;;;;;;;;;5018723;28;20421;-81
2023/08/08 02:26:20;;;;;;;12.98;4.50;;;;;;;;;;5018466;28;20424;-81
2023/08/08 02:28:46;;;;;;;8.07;4.25;;;13.90;99.90;;;;;;5027004;28;20421;-81
2023/08/08 02:31:12;;;;;;;10.50;4.20;;;;;;;;;;5034983;28;20477;-82
2023/08/08 02:33:38;;;;;;;9.33;4.37;;;;;;;;;;5035490;28;20500;-82
2023/08/08 02:36:04;;;;;;;8.90;4.07;;;;;;;;;;5020058;28;20411;-83
2023/08/08 02:38:30;;;;;;;9.65;4.57;;;;;;;;;;5026880;28;20417;-81
2023/08/08 02:40:56;;;;;;;8.02;4.30;;;;;;;;;;5007240;28;20473;-81
2023/08/08 02:43:22;;;;;;;9.38;4.45;;;;;;;;;;5038322;28;20426;-82
2023/08/08 02:45:48;;;;;;;9.93;4.50;;;;;;;;;;5019913;28;20487;-82
2023/08/08 02:48:14;;;;;;;10.95;4.20;;;;;;;;;;5027126;28;20425;-81
2023/08/08 02:50:40;;;;;;;12.32;4.30;;;13.60;99.90;;;;;;5014397;28;20950;-82
2023/08/08 02:53:06;;;;;;;9.38;4.25;;;;;;;;;;5013771;28;20399;-83
2023/08/08 02:55:32;;;;;;;10.70;4.20;;;;;;;;;;5015924;28;20413;-83
2023/08/08 02:57:58;;;;;;;9.20;3.60;;;;;;;;;;5014610;28;20425;-82
2023/08/08 03:00:24;;;;;;;11.48;4.30;;;;;;;;;;5006736;28;20431;-82
2023/08/08 03:02:50;;;;;;;7.85;3.67;;;;;;;;;;5017004;28;20425;-82
2023/08/08 03:05:16;;;;;;;11.40;4.45;;;13.80;99.90;;;;;;5030492;28;20427;-81
2023/08/08 03:07:42;;;;;;;11.93;4.73;;;;;;;;;;5044921;28;20933;-86
2023/08/08 03:10:08;;;;;;;15.17;4.87;;;;;;;;;;5015425;28;20427;-85
2023/08/08 03:12:35;;;;;;;11.63;4.80;;;;;;;;;;5000554;28;20407;-84
2023/08/08 03:15:01;;;;;;;9.93;4.05;;;;;;;;;;5016399;28;20971;-84
2023/08/08 03:17:27;;;;;;;10.18;4.63;;;;;;;;;;5039945;28;20449;-84
2023/08/08 03:19:53;;;;;;;10.60;4.32;;;;;;;;;;5019147;28;20404;-82
2023/08/08 03:22:19;;;;;;;18.75;4.55;;;;;;;;;;4998088;28;20427;-82
2023/08/08 03:24:45;;;;;;;10.68;4.63;;;;;;;;;;5004776;28;20430;-82
2023/08/08 03:27:11;;;;;;;10.02;4.53;;;;;;;;;;5014739;28;20421;-81
2023/08/08 03:29:37;;;;;;;10.83;4.20;;;;;;;;;;5032449;28;20428;-81
2023/08/08 03:32:04;;;;;;;10.68;4.03;;;13.80;99.90;;;;;;5031448;28;20804;-82
2023/08/08 03:34:30;;;;;;;12.32;4.43;;;;;;;;;;5017401;28;20401;-82
2023/08/08 03:36:56;;;;;;;9.32;4.35;;;;;;;;;;5022161;28;20785;-82
2023/08/08 03:39:22;;;;;;;15.25;5.10;;;;;;;;;;5000010;28;20430;-82
2023/08/08 03:41:48;;;;;;;13.10;5.17;;;;;;;;;;5015434;28;20417;-81
2023/08/08 03:44:14;;;;;;;11.82;4.55;;;;;;;;;;5013583;28;20431;-82
2023/08/08 03:46:41;;;;;;;11.23;5.20;;;;;;;;;;4997538;28;20418;-82
2023/08/08 03:49:07;;;;;;;11.25;5.05;;;;;;;;;;5028570;28;20526;-81
2023/08/08 03:51:33;;;;;;;10.03;4.60;;;;;;;;;;5005288;28;20431;-82
2023/08/08 03:53:59;;;;;;;8.88;4.28;;;;;;;;;;4998222;28;20403;-81
2023/08/08 03:56:25;;;;;;;15.10;4.70;;;;;;;;;;5021794;28;20405;-82
2023/08/08 03:58:51;;;;;;;13.45;4.32;;;;;;;;;;4998393;28;20405;-82
2023/08/08 04:01:17;;;;;;;13.07;4.10;;;;;;;;;;5010507;28;20508;-84
2023/08/08 04:03:43;;;;;;;8.80;3.50;;;;;;;;;;5034164;28;20409;-82
2023/08/08 04:06:09;;;;;;;9.38;3.50;;;13.50;99.90;;;;;;5016715;28;20428;-83
2023/08/08 04:08:35;;;;;;;9.07;3.40;;;;;;;;;;5023194;28;20410;-82
2023/08/08 04:11:01;;;;;;;10.48;3.50;;;;;;;;;;5008531;28;20421;-83
2023/08/08 04:13:27;;;;;;;11.07;3.60;;;13.40;99.90;;;;;;5034904;28;20409;-85
2023/08/08 04:15:53;;;;;;;13.30;3.42;;;;;;;;;;5034316;28;20401;-84
2023/08/08 04:18:19;;;;;;;7.68;3.40;;;;;;;;;;5004417;28;20414;-81
2023/08/08 04:20:48;;;;;;;11.50;3.45;;;;;;;;;;5017679;28;20430;-83
2023/08/08 04:23:15;;;;;;;9.50;3.25;;;;;;;;;;5031704;28;20421;-83
2023/08/08 04:25:42;;;;;;;10.93;3.08;;;;;;;;;;5006585;28;20777;-84
2023/08/08 04:28:08;;;;;;;9.80;3.30;;;;;;;;;;5028023;28;20422;-83
2023/08/08 04:30:35;;;;;;;9.77;3.10;;;;;;;;;;5015165;28;20455;-83
2023/08/08 04:33:01;;;;;;;8.00;2.67;;;;;;;;;;5002098;28;20452;-84
2023/08/08 04:35:27;;;;;;;8.77;3.03;;;;;;;;;;5023924;28;20417;-84
2023/08/08 04:37:53;;;;;;;9.38;2.55;;;;;;;;;;5006691;28;20461;-85
2023/08/08 04:40:19;;;;;;;8.32;3.00;;;;;;;;;;4998561;28;20446;-84
2023/08/08 04:42:45;;;;;;;11.40;3.40;;;13.30;99.90;;;;;;5000149;28;20479;-85
2023/08/08 04:45:11;;;;;;;11.80;2.73;;;;;;;;;;5006535;28;20481;-83
2023/08/08 04:47:37;;;;;;;10.52;3.05;;;;;;;;;;5035214;28;20409;-83
2023/08/08 04:50:03;;;;;;;7.88;2.97;;;;;;;;;;5043561;28;20427;-83
2023/08/08 04:52:29;;;;;;;8.57;2.70;;;;;;;;;;5036363;28;20424;-83
2023/08/08 04:54:55;;;;;;;9.23;2.80;;;13.10;99.90;;;;;;5039762;28;20500;-85
2023/08/08 04:57:21;;;;;;;10.37;3.03;;;;;;;;;;5037671;28;20989;-83
2023/08/08 04:59:47;;;;;;;8.98;2.92;;;;;;;;;;5058862;28;20430;-84
2023/08/08 05:02:13;;;;;;;11.88;3.40;;;;;;;;;;5032831;28;20485;-83
2023/08/08 05:04:39;;;;;;;8.93;2.85;;;;;;;;;;5033817;28;20429;-84
2023/08/08 05:07:05;;;;;;;10.13;3.00;;;13.20;99.90;;;;;;5043856;28;20824;-83
2023/08/08 05:09:32;;;;;;;11.73;2.70;;;;;;;;;;5023541;28;20426;-84
2023/08/08 05:12:00;;;;;;;6.40;2.60;;;;;;;;;;5025311;28;20496;-85
2023/08/08 05:14:26;;;;;;;7.47;2.50;;;;;;;;;;5053169;28;20430;-83
2023/08/08 05:16:52;;;;;;;8.90;2.22;;;;;;;;;;5036292;28;20420;-83
2023/08/08 05:19:22;;;;;;;13.75;2.35;;;;;;;;;;5057726;28;20406;-83
2023/08/08 05:21:50;;;;;;;6.10;2.00;;;;;;;;;;5035740;28;20932;-85
2023/08/08 05:24:17;;;;;;;8.60;2.33;;;;;;;;;;5042191;28;20421;-84
2023/08/08 05:26:48;;;;;;;5.90;1.70;;;;;;;;;;5049270;28;20419;-83
2023/08/08 05:29:17;;;;;;;5.25;1.85;;;;;;;;;;5036178;28;20409;-84
2023/08/08 05:31:43;;;;;;;6.53;1.70;;;;;;;;;;5025454;28;20862;-84
2023/08/08 05:34:11;;;;;;;8.70;2.17;;;;;;;;;;5043694;28;20430;-85
2023/08/08 05:36:38;;;;;;;6.40;2.03;;;;;;;;;;5031381;28;20407;-85
2023/08/08 05:39:04;;;;;;;8.95;2.10;;;;;;;;;;5042570;28;20421;-83
2023/08/08 05:41:36;;;;;;;7.15;2.03;;;;;;;;;;5053307;28;20457;-84
2023/08/08 05:44:02;;;;;;;10.07;2.00;;;;;;;;;;5051926;28;20423;-84
2023/08/08 05:46:28;;;;;;;8.13;2.35;;;;;;;;;;5032439;28;20441;-83
2023/08/08 05:48:54;;;;;;;5.80;2.25;;;;;;;;;;5034938;28;20469;-84
2023/08/08 05:51:24;;;;;;;6.28;2.10;;;;;;;;;;5042737;28;20459;-85
2023/08/08 05:56:54;;;;;;;9.20;2.27;;;;;;;;;;5027575;28;20410;-85
2023/08/08 05:59:21;;;;;;;8.20;2.30;;;;;;;;;;5026333;28;20975;-84
2023/08/08 06:01:50;;;;;;;7.50;2.00;;;;;;;;;;5048331;28;20467;-84
2023/08/08 06:04:16;;;;;;;6.85;2.00;;;;;;;;;;5038240;28;20448;-85
2023/08/08 06:06:42;;;;;;;6.07;1.77;;;;;;;;;;5046526;28;20417;-85
2023/08/08 06:09:14;;;;;;;8.07;2.00;;;;;;;;;;5040742;28;20421;-86
2023/08/08 06:11:42;;;;;;;6.30;2.22;;;;;;;;;;5048404;28;20921;-86
2023/08/08 06:14:19;;;;;;;;;;;;;;;;;;;;;
2023/08/08 06:16:46;;;;;;;7.88;2.08;;;;;;;;;;5048129;28;20428;-85
2023/08/08 06:19:18;;;;;;;5.95;1.83;;;;;;;;;;5035805;28;20426;-84
2023/08/08 06:21:54;;;;;;;8.98;1.92;;;;;;;;;;5048294;28;20423;-86
2023/08/08 06:24:22;;;;;;;5.87;1.80;;;;;;;;;;5055975;28;20423;-84
2023/08/08 06:26:51;;;;;;;9.68;2.13;;;;;;;;;;5005298;28;20491;-85
2023/08/08 06:29:17;;;;;;;10.43;2.65;;;15.50;99.90;;;;;;5055628;28;20415;-84
2023/08/08 06:31:43;;;;;;;7.37;1.90;;;;;;;;;;5028772;28;20429;-83
2023/08/08 06:34:15;;;;;;;7.38;1.90;;;;;;;;;;5044798;28;20417;-82
2023/08/08 06:36:42;;;;;;;8.07;1.88;;;;;;;;;;5034191;28;21082;-83
2023/08/08 06:39:09;;;;;;;6.13;1.98;;;;;;;;;;5071898;28;20411;-83
2023/08/08 06:41:44;;;;;;;7.10;1.92;;;;;;;;;;5032884;28;20874;-85
2023/08/08 06:44:10;;;;;;;7.78;2.00;;;16.10;99.90;;;;;;5052645;28;20940;-82
2023/08/08 06:46:36;;;;;;;8.50;2.20;;;15.90;99.90;;;;;;5041783;28;20498;-82
2023/08/08 06:49:01;;;;;;;5.82;1.52;;;16.20;99.90;;;;;;5035717;28;20929;-81
2023/08/08 06:51:27;;;;;;;5.88;1.48;;;16.10;99.90;;;;;;5009836;28;20431;-81
2023/08/08 06:54:02;;;;;;;6.23;1.90;;;16.10;99.90;;;;;;5040559;28;20486;-81
2023/08/08 06:56:37;;;;;;;7.65;1.73;;;16.50;99.90;;;;;;5040139;28;20485;-81
2023/08/08 06:59:10;;;;;;;7.55;1.60;;;16.40;99.90;;;;;;5040792;28;20424;-81
2023/08/08 07:01:36;;;;;;;8.13;2.08;;;16.30;99.90;;;;;;5020740;28;20430;-82
2023/08/08 07:04:02;;;;;;;8.02;1.63;;;16.70;99.90;;;;;;5069439;28;20408;-81
2023/08/08 07:06:27;;;;;;;5.63;1.67;;;16.60;99.90;;;;;;5055483;28;20431;-79
2023/08/08 07:08:53;;;;;;;6.30;1.77;;;16.60;99.90;;;;;;5037432;28;20492;-78
2023/08/08 07:11:19;;;;;;;5.68;1.42;;;17.10;99.90;;;;;;5004470;28;20427;-79
2023/08/08 07:13:44;;;;;;;4.63;1.30;;;16.90;99.90;;;;;;5065658;28;20412;-79
2023/08/08 07:16:10;;;;;;;6.77;1.73;;;16.60;99.90;;;;;;5056707;28;20501;-79
2023/08/08 07:18:37;;;;;;;6.00;1.60;;;16.60;99.90;;;;;;5029124;28;20416;-79
2023/08/08 07:21:03;;;;;;;7.03;1.55;;;16.40;99.90;;;;;;5015167;28;20423;-79
2023/08/08 07:23:29;;;;;;;4.77;1.40;;;16.70;99.90;;;;;;5034532;28;20470;-79
2023/08/08 07:25:54;;;;;;;4.80;1.40;;;16.60;99.90;;;;;;5003539;28;20881;-79
2023/08/08 07:28:20;;;;;;;5.70;1.40;;;16.60;99.90;;;;;;5053364;28;20419;-79
2023/08/08 07:30:46;;;;;;;5.32;1.73;;;16.40;99.90;;;;;;5037907;28;20427;-78
2023/08/08 07:33:14;;;;;;;4.70;1.40;;;16.60;99.90;;;;;;5033854;28;20417;-84
2023/08/08 07:35:39;;;;;;;5.38;1.50;;;16.80;99.90;;;;;;5049126;28;20427;-82
2023/08/08 07:38:05;;;;;;;7.43;1.30;;;16.80;99.90;;;;;;5031306;28;20425;-83
2023/08/08 07:40:33;;;;;;;5.07;1.77;;;16.80;99.90;;;;;;5014709;28;20480;-83
2023/08/08 07:43:04;;;;;;;7.10;1.50;;;16.90;99.90;;;;;;5050979;28;20416;-83
2023/08/08 07:45:30;;;;;;;6.20;1.33;;;16.70;99.90;;;;;;5052550;28;20432;-83
2023/08/08 07:47:55;;;;;;;7.72;1.77;;;16.90;99.90;;;;;;5035236;28;20415;-83
2023/08/08 07:50:21;;;;;;;4.40;1.30;;;16.80;99.90;;;;;;5025231;28;20781;-83
2023/08/08 07:52:47;;;;;;;5.80;1.58;;;17.00;99.90;;;;;;5031110;28;20429;-83
2023/08/08 07:55:13;;;;;;;5.13;1.40;;;17.00;99.90;;;;;;5032524;28;20456;-83
2023/08/08 07:57:47;;;;;;;5.33;1.23;;;17.00;99.90;;;;;;5020592;28;20431;-83
2023/08/08 08:00:14;;;;;;;4.93;1.43;;;17.00;99.90;;;;;;5042256;28;20461;-82
2023/08/08 08:02:43;;;;;;;5.68;1.30;;;17.00;99.90;;;;;;5012549;28;20500;-81
2023/08/08 08:05:09;;;;;;;6.75;1.65;;;17.10;99.90;;;;;;5029914;28;20781;-81
2023/08/08 08:07:36;;;;;;;5.55;1.40;;;17.10;99.90;;;;;;5023135;28;20426;-82
2023/08/08 08:10:08;;;;;;;5.65;1.60;;;17.20;99.90;;;;;;5032717;28;20429;-82
2023/08/08 08:12:37;;;;;;;6.32;1.50;;;17.20;99.90;;;;;;5015214;28;20482;-82
2023/08/08 08:15:07;;;;;;;5.35;1.50;;;17.00;99.90;;;;;;5018941;28;20429;-84
2023/08/08 08:17:32;;;;;;;6.40;1.55;;;17.40;99.90;;;;;;5031983;28;20425;-82
2023/08/08 08:19:58;;;;;;;9.37;1.80;;;17.20;99.90;;;;;;5028802;28;20424;-82
2023/08/08 08:22:24;;;;;;;6.40;1.60;;;17.20;99.90;;;;;;5028368;28;20421;-83
2023/08/08 08:24:50;;;;;;;10.80;1.90;;;17.10;99.90;;;;;;4998323;28;20910;-83
2023/08/08 08:27:17;;;;;;;5.70;1.63;;;17.00;99.90;;;;;;5030188;28;20496;-82
2023/08/08 08:29:43;;;;;;;5.05;1.20;;;17.30;99.90;;;;;;5030441;28;20500;-80
2023/08/08 08:32:09;;;;;;;5.77;1.33;;;17.00;99.90;;;;;;5028063;28;20489;-82
2023/08/08 08:34:34;;;;;;;5.17;1.47;;;17.20;99.90;;;;;;5047482;28;20481;-84
2023/08/08 08:37:00;;;;;;;4.80;1.40;;;17.20;99.90;;;;;;5039602;28;20405;-85
2023/08/08 08:39:26;;;;;;;6.93;1.38;;;17.30;99.90;;;;;;5017465;28;20423;-82
2023/08/08 08:42:04;;;;;;;7.10;1.70;;;17.30;99.90;;;;;;5054855;28;20424;-87
2023/08/08 08:44:35;;;;;;;6.63;1.50;;;17.30;99.90;;;;;;5026209;28;20974;-87
2023/08/08 08:47:02;;;;;;;6.27;1.60;;;17.30;99.90;;;;;;5039240;28;20489;-88
2023/08/08 08:49:31;;;;;;;6.15;1.60;;;17.20;99.90;;;;;;5026933;28;20764;-87
2023/08/08 08:52:01;;;;;;;5.00;1.60;;;17.20;99.90;;;;;;5031837;28;20422;-84
2023/08/08 08:54:29;;;;;;;7.00;1.98;;;17.00;99.90;;;;;;5040115;28;20464;-85
2023/08/08 08:56:56;;;;;;;8.45;2.00;;;17.20;99.90;;;;;;5031578;28;20425;-86
2023/08/08 08:59:23;;;;;;;6.15;1.60;;;17.10;99.90;;;;;;5025064;28;20477;-86
2023/08/08 09:01:50;;;;;;;7.10;1.75;;;17.50;99.90;;;;;;5033583;28;20909;-90
2023/08/08 09:04:18;;;;;;;7.30;1.73;;;17.30;99.90;;;;;;5033701;28;20419;-84
2023/08/08 09:06:45;;;;;;;4.97;1.70;;;17.20;99.90;;;;;;5036038;28;20440;-82
2023/08/08 09:09:12;;;;;;;5.07;1.50;;;17.40;99.90;;;;;;5038658;28;20418;-81
2023/08/08 09:11:39;;;;;;;5.88;1.70;;;16.70;99.90;;;;;;5047444;28;20931;-80
2023/08/08 09:14:18;;;;;;;6.50;1.50;;;16.50;99.90;;;;;;5024310;28;20413;-81
2023/08/08 09:16:46;;;;;;;5.75;1.67;;;16.30;99.90;;;;;;5056476;28;20412;-81
2023/08/08 09:19:13;;;;;;;6.43;1.63;;;16.60;99.90;;;;;;5049438;28;20416;-81
2023/08/08 09:21:39;;;;;;;6.05;1.50;;;16.50;99.90;;;;;;5032446;28;20419;-81
2023/08/08 09:24:05;;;;;;;6.77;1.63;;;16.50;99.90;;;;;;5033815;28;20416;-81
2023/08/08 09:26:31;;;;;;;9.88;1.90;;;16.50;99.90;;;;;;5044545;28;20442;-81
2023/08/08 09:28:57;;;;;;;5.57;1.77;;;16.80;99.90;;;;;;5032027;28;20479;-81
2023/08/08 09:31:25;;;;;;;6.60;2.03;;;16.90;99.90;;;;;;5052630;28;20801;-81
2023/08/08 09:33:53;;;;;;;5.47;2.03;;;17.10;99.90;;;;;;5057298;28;20400;-80
2023/08/08 09:36:19;;;;;;;7.20;1.90;;;16.90;99.90;;;;;;5052066;28;20427;-80
2023/08/08 09:38:45;;;;;;;6.25;1.75;;;17.00;99.90;;;;;;5037596;28;20448;-78
2023/08/08 09:41:11;;;;;;;5.00;1.75;;;16.80;99.90;;;;;;5045835;28;20516;-81
2023/08/08 09:43:37;;;;;;;5.68;1.88;;;16.60;99.90;;;;;;5047839;28;20430;-78
2023/08/08 09:46:03;;;;;;;6.50;1.80;;;16.80;99.90;;;;;;5037803;28;20420;-80
2023/08/08 09:48:33;;;;;;;5.83;1.67;;;17.10;99.90;;;;;;5042990;28;20500;-89
2023/08/08 09:51:01;;;;;;;5.85;1.73;;;17.50;99.90;;;;;;5034028;28;20949;-84
2023/08/08 09:53:28;;;;;;;5.93;1.95;;;18.00;99.90;;;;;;5005301;28;20433;-82
2023/08/08 09:55:55;;;;;;;4.60;1.50;;;17.90;99.90;;;;;;5029524;28;20423;-82
2023/08/08 09:58:22;;;;;;;6.63;1.65;;;17.90;99.90;;;;;;5026305;28;20425;-83
2023/08/08 10:00:51;;;;;;;5.63;1.58;;;17.80;99.90;;;;;;5043875;28;20423;-82
2023/08/08 10:03:18;;;;;;;5.95;1.67;;;17.80;99.90;;;;;;5038740;28;22171;-83
2023/08/08 10:05:44;;;;;;;5.85;1.70;;;17.40;99.90;;;;;;5032441;28;20425;-82
2023/08/08 10:08:10;;;;;;;5.55;1.90;;;17.60;99.90;;;;;;5054064;28;20447;-83
2023/08/08 10:10:37;;;;;;;6.28;1.70;;;17.40;99.90;;;;;;5038933;28;20895;-83
2023/08/08 10:13:05;;;;;;;5.90;2.00;;;17.40;99.90;;;;;;5064107;28;20418;-84
2023/08/08 10:15:37;;;;;;;5.68;1.52;;;17.30;99.90;;;;;;5034446;28;20468;-83
2023/08/08 10:18:03;;;;;;;5.10;1.80;;;17.40;99.90;;;;;;5049845;28;20539;-84
2023/08/08 10:20:33;;;;;;;4.75;1.65;;;17.70;99.90;;;;;;5052647;28;20816;-85
2023/08/08 10:23:02;;;;;;;7.50;1.90;;;17.50;99.90;;;;;;5049017;28;20428;-82
2023/08/08 10:25:30;;;;;;;6.93;1.85;;;17.40;99.90;;;;;;5036191;28;20579;-85
2023/08/08 10:28:23;;;;;;;4.53;1.52;;;16.90;99.90;;;;;;5044224;28;20425;-84
2023/08/08 10:30:57;;;;;;;4.70;1.70;;;17.00;99.90;;;;;;5017601;28;20428;-85
2023/08/08 10:33:25;;;;;;;5.30;1.58;;;17.00;99.90;;;;;;5037859;28;20451;-84
2023/08/08 10:35:58;;;;;;;7.55;1.90;;;17.00;99.90;;;;;;5037833;28;20405;-86
2023/08/08 10:38:52;;;;;;;7.40;1.88;;;17.00;99.90;;;;;;5022860;28;20881;-85
2023/08/08 10:41:26;;;;;;;7.00;1.80;;;17.10;99.90;;;;;;5005192;28;20409;-85
2023/08/08 10:43:57;;;;;;;6.78;2.00;;;16.90;99.90;;;;;;5049489;28;20968;-86
2023/08/08 10:46:54;;;;;;;5.70;1.80;;;17.00;99.90;;;;;;5052300;28;20872;-84
2023/08/08 10:49:25;;;;;;;5.43;1.50;;;17.10;99.90;;;;;;5053938;28;20428;-83
2023/08/08 10:51:54;;;;;;;4.60;1.60;;;17.00;99.90;;;;;;5046644;28;20422;-82
2023/08/08 10:54:27;;;;;;;4.90;1.27;;;17.40;99.90;;;;;;5010310;28;20412;-85
2023/08/08 10:56:55;;;;;;;6.25;1.50;;;17.60;99.90;;;;;;5039626;28;20421;-85
2023/08/08 10:59:29;;;;;;;7.18;1.80;;;18.20;99.90;;;;;;5031304;28;20425;-85
2023/08/08 11:02:04;;;;;;;6.80;1.75;;;18.30;99.90;;;;;;5035014;28;20450;-87
2023/08/08 11:04:34;;;;;;;5.88;1.73;;;18.20;99.90;;;;;;5033124;28;20419;-81
2023/08/08 11:07:01;;;;;;;5.47;1.33;;;18.50;99.90;;;;;;5024498;28;20458;-78
2023/08/08 11:09:27;;;;;;;4.65;1.60;;;19.00;99.90;;;;;;5031033;28;20747;-79
2023/08/08 11:11:53;;;;;;;5.40;1.70;;;18.60;99.90;;;;;;5039985;28;20978;-81
2023/08/08 11:14:20;;;;;;;7.40;1.70;;;18.70;99.90;;;;;;5053583;28;20519;-83
2023/08/08 11:16:48;;;;;;;4.65;1.40;;;18.70;99.90;;;;;;5046985;28;21063;-79
2023/08/08 11:19:14;;;;;;;5.25;1.80;;;18.70;99.90;;;;;;5075238;28;20409;-86
2023/08/08 11:21:41;;;;;;;6.95;1.90;;;18.40;99.90;;;;;;5054959;28;20426;-88
2023/08/08 11:24:08;;;;;;;5.07;1.77;;;18.30;99.90;;;;;;5079438;28;20423;-88
2023/08/08 11:26:39;;;;;;;8.00;1.77;;;18.30;99.90;;;;;;5057798;28;20830;-88
2023/08/08 11:29:05;;;;;;;7.63;1.60;;;18.20;99.90;;;;;;5031451;28;20417;-88
2023/08/08 11:31:32;;;;;;;5.07;1.70;;;18.00;99.90;;;;;;5023391;28;20921;-87
2023/08/08 11:33:59;;;;;;;7.43;2.10;;;17.40;99.90;;;;;;5047769;28;20763;-87
2023/08/08 11:36:29;;;;;;;7.22;2.05;;;17.90;99.90;;;;;;5063930;28;20417;-87
2023/08/08 11:38:56;;;;;;;5.65;1.55;;;18.00;99.90;;;;;;5042039;28;20416;-88
2023/08/08 11:41:23;;;;;;;4.40;1.25;;;18.00;99.90;;;;;;5040393;28;20509;-88
2023/08/08 11:43:50;;;;;;;6.70;1.63;;;18.00;99.90;;;;;;5005745;28;20428;-89
2023/08/08 11:46:17;;;;;;;6.93;1.60;;;17.90;99.90;;;;;;5035520;28;20419;-86
2023/08/08 11:48:46;;;;;;;4.40;1.42;;;18.10;99.90;;;;;;5050026;28;20453;-86
2023/08/08 11:51:15;;;;;;;6.65;1.40;;;18.40;99.90;;;;;;5045767;28;20545;-87
2023/08/08 11:53:52;;;;;;;6.38;1.52;;;18.50;99.90;;;;;;5038916;28;20484;-87
2023/08/08 11:56:20;;;;;;;5.03;1.40;;;18.80;99.90;;;;;;5049867;28;20401;-88
2023/08/08 11:58:50;;;;;;;4.45;1.30;;;18.80;99.90;;;;;;5036115;28;20533;-82
2023/08/08 12:01:16;;;;;;;6.20;1.90;;;19.00;99.90;;;;;;5050889;28;20839;-86
2023/08/08 12:03:42;;;;;;;6.70;1.50;;;19.00;99.90;;;;;;5036185;28;20423;-87
2023/08/08 12:06:15;;;;;;;5.93;1.50;;;19.00;99.90;;;;;;5038895;28;20426;-87
2023/08/08 12:08:43;;;;;;;5.40;1.60;;;18.40;99.90;;;;;;5041188;28;20418;-86
2023/08/08 12:11:10;;;;;;;4.37;1.50;;;18.60;99.90;;;;;;5054430;28;20421;-88
2023/08/08 12:13:39;;;;;;;6.22;1.75;;;18.50;99.90;;;;;;5039376;28;20783;-83
2023/08/08 12:16:06;;;;;;;5.47;1.43;;;18.50;99.90;;;;;;5037701;28;20473;-82
2023/08/08 12:18:32;;;;;;;4.60;1.60;;;18.50;99.90;;;;;;5026975;28;20515;-83
2023/08/08 12:20:58;;;;;;;6.32;1.40;;;17.90;99.90;;;;;;5038299;28;20427;-83
2023/08/08 12:23:26;;;;;;;4.93;1.50;;;18.30;99.90;;;;;;5073322;28;20446;-83
2023/08/08 12:25:53;;;;;;;5.47;1.50;;;18.60;99.90;;;;;;5039466;28;20446;-83
2023/08/08 12:28:19;;;;;;;4.03;1.60;;;19.00;99.90;;;;;;5068264;28;20938;-83
2023/08/08 12:30:44;;;;;;;5.65;1.40;;;20.30;99.90;;;;;;5047396;28;20617;-82
2023/08/08 12:33:10;;;;;;;6.35;1.50;;;19.60;99.90;;;;;;5062892;28;20420;-81
2023/08/08 12:35:36;;;;;;;11.48;1.73;;;19.80;99.90;;;;;;5038568;28;20420;-84
2023/08/08 12:38:03;;;;;;;4.27;1.20;;;20.10;99.90;;;;;;5069923;28;20438;-81
2023/08/08 12:40:29;;;;;;;4.70;1.65;;;19.90;99.90;;;;;;5054256;28;20454;-82
2023/08/08 12:42:55;;;;;;;4.50;1.40;;;19.80;99.90;;;;;;5030483;28;20520;-83
2023/08/08 12:45:21;;;;;;;4.13;1.40;;;20.00;99.90;;;;;;5044081;28;20504;-83
2023/08/08 12:47:46;;;;;;;6.10;1.30;;;19.90;99.90;;;;;;5028601;28;20827;-83
2023/08/08 12:50:12;;;;;;;6.22;1.80;;;19.60;99.90;;;;;;5009252;28;20842;-83
2023/08/08 12:52:38;;;;;;;3.73;1.30;;;19.60;99.90;;;;;;5056005;28;20465;-83
2023/08/08 12:55:05;;;;;;;5.57;1.60;;;19.50;99.90;;;;;;5052775;28;20908;-83
2023/08/08 12:57:31;;;;;;;4.17;1.40;;;19.30;99.90;;;;;;5069960;28;20419;-80
2023/08/08 12:59:57;;;;;;;4.63;1.47;;;19.30;99.90;;;;;;5040710;28;20419;-81
2023/08/08 13:02:23;;;;;;;3.87;1.40;;;19.30;99.90;;;;;;5026753;28;20423;-83
2023/08/08 13:04:48;;;;;;;4.78;1.50;;;19.10;99.90;;;;;;5049342;28;20427;-81
2023/08/08 13:07:14;;;;;;;5.90;1.50;;;19.20;99.90;;;;;;5066303;28;20909;-82
2023/08/08 13:09:40;;;;;;;5.50;1.30;;;18.90;99.90;;;;;;5035945;28;20492;-82
2023/08/08 13:12:06;;;;;;;5.18;1.42;;;18.80;99.90;;;;;;5032365;28;20480;-81
2023/08/08 13:14:32;;;;;;;4.53;1.50;;;19.20;99.90;;;;;;5055367;28;20563;-82
2023/08/08 13:16:58;;;;;;;5.03;1.50;;;18.90;99.90;;;;;;5031136;28;20461;-83
2023/08/08 13:19:25;;;;;;;5.45;1.75;;;17.60;99.90;;;;;;5018924;28;20416;-83
2023/08/08 13:21:52;;;;;;;6.75;1.65;;;19.10;99.90;;;;;;5049798;28;20936;-79
2023/08/08 13:24:18;;;;;;;4.38;1.40;;;18.90;99.90;;;;;;5023442;28;20419;-81
2023/08/08 13:26:43;;;;;;;5.22;1.45;;;19.00;99.90;;;;;;5049430;28;20474;-83
2023/08/08 13:29:11;;;;;;;5.88;1.50;;;19.30;99.90;;;;;;5048805;28;20503;-83
2023/08/08 13:31:37;;;;;;;4.93;1.50;;;19.60;99.90;;;;;;5051629;28;20429;-83